Time;durP1;ratioP1;P1;durP2;ratioP2;P2;SDS_P1;SDS_P2;PMS_P1;PMS_P2;Temp;Humidity;BMP_temperature;BMP_pressure;BME280_temperature;BME280_humidity;BME280_pressure;Samples;Min_cycle;Max_cycle;Signal;HPM_P1;HPM_P2
2023/03/14 00:02:00;;;;;;;11.13;3.43;;;;;;;-145.18;100.00;60484.78;5042792;28;20458;-67
2023/03/14 00:04:25;;;;;;;12.60;3.63;;;;;;;-145.18;100.00;60484.78;5039904;28;20123;-68
2023/03/14 00:06:51;;;;;;;11.63;3.40;;;;;;;-145.18;100.00;60484.78;5033449;28;20025;-69
2023/03/14 00:09:17;;;;;;;10.47;3.90;;;;;;;-145.18;100.00;60484.78;5044224;28;20091;-67
2023/03/14 00:11:43;;;;;;;10.50;4.30;;;;;;;-145.18;100.00;60484.78;5036075;28;20057;-67
2023/03/14 00:14:08;;;;;;;14.13;4.00;;;;;;;-145.18;100.00;60484.78;5037402;28;20104;-67
2023/03/14 00:16:33;;;;;;;12.07;4.00;;;;;;;-145.18;100.00;60484.78;5039937;28;20132;-68
2023/03/14 00:18:59;;;;;;;11.27;3.97;;;;;;;-145.18;100.00;60484.78;5042738;28;20469;-67
2023/03/14 00:21:25;;;;;;;13.40;4.00;;;;;;;-145.18;100.00;60484.78;5042652;28;20108;-68
2023/03/14 00:23:51;;;;;;;13.33;4.37;;;;;;;-145.18;100.00;60484.78;5042333;28;20025;-67
2023/03/14 00:26:19;;;;;;;11.20;4.33;;;;;;;-145.18;100.00;60484.78;5034169;28;20367;-68
2023/03/14 00:28:45;;;;;;;12.53;4.17;;;;;;;-145.18;100.00;60484.78;5043530;28;20108;-69
2023/03/14 00:31:13;;;;;;;10.20;4.83;;;;;;;-145.18;100.00;60484.78;5037737;28;20040;-66
2023/03/14 00:33:39;;;;;;;12.90;4.60;;;;;;;-145.18;100.00;60484.78;5039179;28;20453;-68
2023/03/14 00:36:08;;;;;;;11.97;4.30;;;;;;;-145.18;100.00;60484.78;5036776;28;20025;-66
2023/03/14 00:38:34;;;;;;;11.03;4.40;;;;;;;-145.18;100.00;60484.78;5048105;28;20392;-67
2023/03/14 00:41:04;;;;;;;11.80;4.00;;;;;;;-145.18;100.00;60484.78;5045250;28;20104;-67
2023/03/14 00:43:29;;;;;;;11.37;3.80;;;;;;;-145.18;100.00;60484.78;5038675;28;20033;-67
2023/03/14 00:45:55;;;;;;;9.53;3.67;;;;;;;-145.18;100.00;60484.78;5041482;28;20484;-69
2023/03/14 00:48:20;;;;;;;9.53;3.47;;;;;;;-145.18;100.00;60484.78;5044104;28;20469;-67
2023/03/14 00:50:46;;;;;;;9.80;3.40;;;;;;;-145.18;100.00;60484.78;5034811;28;20029;-68
2023/03/14 00:53:12;;;;;;;7.17;3.70;;;;;;;-145.18;100.00;60484.78;5033022;28;20044;-68
2023/03/14 00:55:39;;;;;;;10.00;4.00;;;;;;;-145.18;100.00;60484.78;5041443;28;20021;-68
2023/03/14 00:58:05;;;;;;;13.43;3.90;;;;;;;-145.18;100.00;60484.78;5037553;28;20027;-68
2023/03/14 01:00:31;;;;;;;9.63;3.60;;;;;;;-145.18;100.00;60484.78;5037399;28;20132;-67
2023/03/14 01:02:56;;;;;;;11.37;3.63;;;;;;;-145.18;100.00;60484.78;5040206;28;20075;-68
2023/03/14 01:05:22;;;;;;;9.57;4.10;;;;;;;-145.18;100.00;60484.78;5036783;28;20025;-67
2023/03/14 01:07:48;;;;;;;14.20;4.87;;;;;;;-145.18;100.00;60484.78;5037585;28;20032;-67
2023/03/14 01:10:14;;;;;;;10.53;3.50;;;;;;;-145.18;100.00;60484.78;5043878;28;20412;-68
2023/03/14 01:12:39;;;;;;;12.70;3.83;;;;;;;-145.18;100.00;60484.78;5036603;28;20025;-69
2023/03/14 01:15:05;;;;;;;11.43;4.27;;;;;;;-145.18;100.00;60484.78;5041576;28;20037;-68
2023/03/14 01:17:31;;;;;;;10.77;4.47;;;;;;;-145.18;100.00;60484.78;5037431;28;20427;-68
2023/03/14 01:19:56;;;;;;;14.87;4.43;;;;;;;-145.18;100.00;60484.78;5044460;28;20496;-68
2023/03/14 01:22:22;;;;;;;11.10;4.57;;;;;;;-145.18;100.00;60484.78;5036382;28;20029;-68
2023/03/14 01:24:47;;;;;;;13.20;4.50;;;;;;;-145.18;100.00;60484.78;5035595;28;20009;-69
2023/03/14 01:27:13;;;;;;;10.87;4.47;;;;;;;-145.18;100.00;60484.78;5042101;28;20108;-66
2023/03/14 01:29:38;;;;;;;10.57;4.50;;;;;;;-145.18;100.00;60484.78;5044749;28;20489;-68
2023/03/14 01:32:04;;;;;;;13.33;5.20;;;;;;;-145.18;100.00;60484.78;5043262;28;20488;-68
2023/03/14 01:34:29;;;;;;;12.67;4.93;;;;;;;-145.18;100.00;60484.78;5046290;28;20028;-67
2023/03/14 01:36:55;;;;;;;10.70;4.80;;;;;;;-145.18;100.00;60484.78;5031019;28;20026;-67
2023/03/14 01:39:20;;;;;;;9.53;4.03;;;;;;;-145.18;100.00;60484.78;5042627;28;20493;-67
2023/03/14 01:41:45;;;;;;;9.43;4.30;;;;;;;-145.18;100.00;60484.78;5033652;28;20017;-67
2023/03/14 01:44:12;;;;;;;11.87;4.07;;;;;;;-145.18;100.00;60484.78;5038173;28;20333;-68
2023/03/14 01:46:39;;;;;;;10.60;4.43;;;;;;;-145.18;100.00;60484.78;5040978;28;20102;-68
2023/03/14 01:49:13;;;;;;;13.83;5.13;;;;;;;-145.18;100.00;60484.78;5036041;28;20424;-67
2023/03/14 01:51:45;;;;;;;11.67;4.70;;;;;;;-145.18;100.00;60484.78;5037227;28;20083;-67
2023/03/14 01:54:33;;;;;;;12.93;4.72;;;;;;;-145.18;100.00;60484.78;5041850;28;20060;-68
2023/03/14 01:57:11;;;;;;;10.60;4.00;;;;;;;-145.18;100.00;60484.78;5041151;28;20044;-68
2023/03/14 01:59:38;;;;;;;10.20;3.70;;;;;;;-145.18;100.00;60484.78;5043161;28;20104;-68
2023/03/14 02:02:09;;;;;;;14.67;4.00;;;;;;;-145.18;100.00;60484.78;5038516;28;21270;-71
2023/03/14 02:04:36;;;;;;;13.47;3.70;;;;;;;-145.18;100.00;60484.78;5037977;28;20021;-71
2023/03/14 02:07:22;;;;;;;8.03;3.63;;;;;;;-145.18;100.00;60484.78;5033512;28;20030;-71
2023/03/14 02:09:48;;;;;;;9.17;3.20;;;;;;;-145.18;100.00;60484.78;5038782;28;20155;-71
2023/03/14 02:12:17;;;;;;;10.50;3.57;;;;;;;-145.18;100.00;60484.78;5039883;28;20025;-70
2023/03/14 02:14:47;;;;;;;11.40;2.87;;;;;;;-145.18;100.00;60484.78;5041397;28;20064;-71
2023/03/14 02:17:14;;;;;;;16.07;3.57;;;;;;;-145.18;100.00;60484.78;5047928;28;20029;-71
2023/03/14 02:20:05;;;;;;;10.90;2.50;;;;;;;-145.18;100.00;60484.78;5043192;28;20170;-71
2023/03/14 02:22:30;;;;;;;10.67;3.17;;;;;;;-145.18;100.00;60484.78;5047815;28;20087;-71
2023/03/14 02:25:05;;;;;;;10.67;3.07;;;;;;;-145.18;100.00;60484.78;5035213;28;20469;-71
2023/03/14 02:27:30;;;;;;;11.23;2.40;;;;;;;-145.18;100.00;60484.78;5039097;28;20029;-71
2023/03/14 02:30:14;;;;;;;6.20;2.30;;;;;;;-145.18;100.00;60484.78;5037347;28;20024;-71
2023/03/14 02:32:45;;;;;;;6.87;2.17;;;;;;;-145.18;100.00;60484.78;5040794;28;20029;-70
2023/03/14 02:35:14;;;;;;;7.63;2.20;;;;;;;-145.18;100.00;60484.78;5044775;28;20056;-71
2023/03/14 02:37:48;;;;;;;11.13;2.80;;;;;;;-145.18;100.00;60484.78;5042655;28;20488;-71
2023/03/14 02:40:14;;;;;;;8.63;2.60;;;;;;;-145.18;100.00;60484.78;5045455;28;20374;-70
2023/03/14 02:42:39;;;;;;;10.70;2.60;;;;;;;-145.18;100.00;60484.78;5043357;28;20138;-70
2023/03/14 02:45:07;;;;;;;8.80;2.90;;;;;;;-145.18;100.00;60484.78;5044728;28;20480;-71
2023/03/14 02:47:33;;;;;;;10.13;3.37;;;;;;;-145.18;100.00;60484.78;5048432;28;20056;-71
2023/03/14 02:50:09;;;;;;;8.17;2.50;;;;;;;-145.18;100.00;60484.78;5042873;28;20439;-71
2023/03/14 02:52:34;;;;;;;9.87;2.50;;;;;;;-145.18;100.00;60484.78;5038237;28;20055;-71
2023/03/14 02:55:00;;;;;;;5.37;2.03;;;;;;;-145.18;100.00;60484.78;5038982;28;20021;-71
2023/03/14 02:57:25;;;;;;;5.77;2.20;;;;;;;-145.18;100.00;60484.78;5040860;28;20036;-71
2023/03/14 02:59:50;;;;;;;10.70;2.80;;;;;;;-145.18;100.00;60484.78;5044803;28;20116;-71
2023/03/14 03:02:16;;;;;;;9.07;2.63;;;;;;;-145.18;100.00;60484.78;5045006;28;20108;-71
2023/03/14 03:04:42;;;;;;;12.57;2.87;;;;;;;-145.18;100.00;60484.78;5039195;28;20323;-71
2023/03/14 03:07:07;;;;;;;10.10;2.67;;;;;;;-145.18;100.00;60484.78;5049159;28;20036;-71
2023/03/14 03:09:33;;;;;;;8.30;2.10;;;;;;;-145.18;100.00;60484.78;5052101;28;20079;-71
2023/03/14 03:11:58;;;;;;;8.17;2.67;;;;;;;-145.18;100.00;60484.78;5052740;28;20463;-70
2023/03/14 03:14:24;;;;;;;4.17;1.83;;;;;;;-145.18;100.00;60484.78;5052919;28;20021;-71
2023/03/14 03:16:49;;;;;;;10.70;3.60;;;;;;;-145.18;100.00;60484.78;5048818;28;20041;-70
2023/03/14 03:19:15;;;;;;;7.27;2.67;;;;;;;-145.18;100.00;60484.78;5044412;28;20067;-70
2023/03/14 03:21:41;;;;;;;7.80;2.97;;;;;;;-145.18;100.00;60484.78;5052860;28;20036;-70
2023/03/14 03:24:06;;;;;;;11.53;3.00;;;;;;;-145.18;100.00;60484.78;5049666;28;20025;-70
2023/03/14 03:26:34;;;;;;;9.93;3.20;;;;;;;-145.18;100.00;60484.78;5052488;28;20037;-70
2023/03/14 03:28:59;;;;;;;10.93;3.40;;;;;;;-145.18;100.00;60484.78;5052796;28;20079;-71
2023/03/14 03:31:25;;;;;;;9.63;3.37;;;;;;;-145.18;100.00;60484.78;5052240;28;20037;-70
2023/03/14 03:33:50;;;;;;;8.30;3.13;;;;;;;-145.18;100.00;60484.78;5051939;28;20496;-68
2023/03/14 03:36:21;;;;;;;14.83;4.13;;;;;;;-145.18;100.00;60484.78;5050912;28;20432;-68
2023/03/14 03:38:46;;;;;;;11.87;3.63;;;;;;;-145.18;100.00;60484.78;5052865;28;20021;-71
2023/03/14 03:41:12;;;;;;;9.37;3.80;;;;;;;-145.18;100.00;60484.78;5046321;28;20400;-70
2023/03/14 03:43:37;;;;;;;13.00;4.03;;;;;;;-145.18;100.00;60484.78;5052467;28;20024;-70
2023/03/14 03:46:04;;;;;;;8.33;3.20;;;;;;;-145.18;100.00;60484.78;5052524;28;20115;-70
2023/03/14 03:48:30;;;;;;;8.53;3.30;;;;;;;-145.18;100.00;60484.78;5050471;28;20060;-70
2023/03/14 03:50:55;;;;;;;9.17;3.30;;;;;;;-145.18;100.00;60484.78;5051310;28;20124;-70
2023/03/14 03:53:21;;;;;;;10.20;3.00;;;;;;;-145.18;100.00;60484.78;5051781;28;20041;-70
2023/03/14 03:55:46;;;;;;;8.90;3.47;;;;;;;-145.18;100.00;60484.78;5052200;28;20490;-70
2023/03/14 03:58:12;;;;;;;10.87;2.93;;;;;;;-145.18;100.00;60484.78;5050204;28;20086;-70
2023/03/14 04:00:38;;;;;;;10.77;3.10;;;;;;;-145.18;100.00;60484.78;5051462;28;20396;-71
2023/03/14 04:03:04;;;;;;;10.70;2.50;;;;;;;-145.18;100.00;60484.78;5049413;28;20028;-70
2023/03/14 04:05:30;;;;;;;6.07;2.20;;;;;;;-145.18;100.00;60484.78;5043051;28;20033;-70
2023/03/14 04:07:55;;;;;;;11.23;2.70;;;;;;;-145.18;100.00;60484.78;5049609;28;20025;-70
2023/03/14 04:10:20;;;;;;;10.17;2.53;;;;;;;-145.18;100.00;60484.78;5044539;28;20070;-70
2023/03/14 04:12:46;;;;;;;4.80;1.73;;;;;;;-145.18;100.00;60484.78;5044232;28;20029;-70
2023/03/14 04:15:11;;;;;;;9.10;2.00;;;;;;;-145.18;100.00;60484.78;5044257;28;20071;-70
2023/03/14 04:17:37;;;;;;;4.40;1.30;;;;;;;-145.18;100.00;60484.78;5045124;28;20037;-69
2023/03/14 04:20:03;;;;;;;9.40;2.10;;;;;;;-145.18;100.00;60484.78;5043125;28;20479;-71
2023/03/14 04:22:28;;;;;;;5.20;1.70;;;;;;;-145.18;100.00;60484.78;5043282;28;20075;-70
2023/03/14 04:24:54;;;;;;;5.93;2.40;;;;;;;-145.18;100.00;60484.78;5042875;28;20465;-69
2023/03/14 04:27:19;;;;;;;6.37;2.00;;;;;;;-145.18;100.00;60484.78;5042124;28;20040;-70
2023/03/14 04:29:44;;;;;;;5.80;1.77;;;;;;;-145.18;100.00;60484.78;5042792;28;20160;-70
2023/03/14 04:32:10;;;;;;;7.33;1.60;;;;;;;-145.18;100.00;60484.78;5045607;28;20029;-70
2023/03/14 04:34:35;;;;;;;8.30;2.20;;;;;;;-145.18;100.00;60484.78;5043192;28;20030;-70
2023/03/14 04:37:01;;;;;;;7.90;2.40;;;;;;;-145.18;100.00;60484.78;5051135;28;20027;-70
2023/03/14 04:39:27;;;;;;;8.23;2.47;;;;;;;-145.18;100.00;60484.78;5047617;28;20043;-71
2023/03/14 04:41:52;;;;;;;10.80;2.97;;;;;;;-145.18;100.00;60484.78;5050521;28;20469;-70
2023/03/14 04:44:18;;;;;;;10.37;2.10;;;;;;;-145.18;100.00;60484.78;5050989;28;20025;-70
2023/03/14 04:46:43;;;;;;;6.67;2.03;;;;;;;-145.18;100.00;60484.78;5050665;28;20100;-70
2023/03/14 04:49:09;;;;;;;10.90;2.57;;;;;;;-145.18;100.00;60484.78;5050089;28;20081;-71
2023/03/14 04:51:34;;;;;;;7.77;2.20;;;;;;;-145.18;100.00;60484.78;5044337;28;20052;-70
2023/03/14 04:53:59;;;;;;;5.77;2.00;;;;;;;-145.18;100.00;60484.78;5051259;28;20029;-71
2023/03/14 04:56:25;;;;;;;7.07;2.23;;;;;;;-145.18;100.00;60484.78;5050403;28;20037;-70
2023/03/14 04:58:50;;;;;;;8.13;2.13;;;;;;;-145.18;100.00;60484.78;5047814;28;20036;-70
2023/03/14 05:01:16;;;;;;;5.57;1.63;;;;;;;-145.18;100.00;60484.78;5042873;28;20033;-70
2023/03/14 05:03:41;;;;;;;6.47;1.50;;;;;;;-145.18;100.00;60484.78;5044225;28;20021;-70
2023/03/14 05:06:07;;;;;;;6.77;1.50;;;;;;;-145.18;100.00;60484.78;5042921;28;20041;-69
2023/03/14 05:08:32;;;;;;;6.93;1.80;;;;;;;-145.18;100.00;60484.78;5043898;28;20087;-70
2023/03/14 05:10:58;;;;;;;6.70;1.67;;;;;;;-145.18;100.00;60484.78;5045037;28;20025;-70
2023/03/14 05:13:24;;;;;;;7.97;1.80;;;;;;;-145.18;100.00;60484.78;5042540;28;20033;-70
2023/03/14 05:15:55;;;;;;;7.30;1.77;;;;;;;-145.18;100.00;60484.78;5041962;28;20029;-70
2023/03/14 05:18:20;;;;;;;4.10;1.52;;;;;;;-145.18;100.00;60484.78;5044221;28;20033;-70
2023/03/14 05:20:45;;;;;;;5.00;1.37;;;;;;;-145.18;100.00;60484.78;5042289;28;20410;-70
2023/03/14 05:23:11;;;;;;;4.33;1.73;;;;;;;-145.18;100.00;60484.78;5044068;28;20141;-70
2023/03/14 05:25:36;;;;;;;8.93;1.60;;;;;;;-145.18;100.00;60484.78;5045496;28;20411;-71
2023/03/14 05:28:02;;;;;;;6.80;1.70;;;;;;;-145.18;100.00;60484.78;5042072;28;20025;-70
2023/03/14 05:30:28;;;;;;;5.43;1.80;;;;;;;-145.18;100.00;60484.78;5042274;28;20028;-71
2023/03/14 05:32:53;;;;;;;8.07;2.10;;;;;;;-145.18;100.00;60484.78;5040535;28;20350;-70
2023/03/14 05:35:19;;;;;;;4.27;1.70;;;;;;;-145.18;100.00;60484.78;5043157;28;20473;-70
2023/03/14 05:37:44;;;;;;;7.50;2.20;;;;;;;-145.18;100.00;60484.78;5049744;28;20028;-71
2023/03/14 05:40:10;;;;;;;4.97;1.50;;;;;;;-145.18;100.00;60484.78;5042753;28;20481;-71
2023/03/14 05:42:36;;;;;;;5.73;1.50;;;;;;;-145.18;100.00;60484.78;5047604;28;20078;-70
2023/03/14 05:45:01;;;;;;;3.20;1.27;;;;;;;-145.18;100.00;60484.78;5047658;28;20519;-71
2023/03/14 05:47:26;;;;;;;4.77;1.33;;;;;;;-145.18;100.00;60484.78;5049548;28;20029;-71
2023/03/14 05:49:52;;;;;;;5.07;1.40;;;;;;;-145.18;100.00;60484.78;5048991;28;20498;-70
2023/03/14 05:52:17;;;;;;;5.40;1.67;;;;;;;-145.18;100.00;60484.78;5050026;28;20043;-69
2023/03/14 05:54:43;;;;;;;7.33;1.60;;;;;;;-145.18;100.00;60484.78;5049130;28;20090;-70
2023/03/14 05:57:08;;;;;;;4.37;1.53;;;;;;;-145.18;100.00;60484.78;5050141;28;20489;-71
2023/03/14 05:59:33;;;;;;;5.00;1.43;;;;;;;-145.18;100.00;60484.78;5047022;28;20025;-70
2023/03/14 06:01:59;;;;;;;2.93;1.40;;;;;;;-145.18;100.00;60484.78;5041826;28;20438;-70
2023/03/14 06:04:24;;;;;;;6.80;1.90;;;;;;;-145.18;100.00;60484.78;5046753;28;20025;-71
2023/03/14 06:06:50;;;;;;;6.00;1.77;;;;;;;-145.18;100.00;60484.78;5049007;28;20115;-71
2023/03/14 06:09:15;;;;;;;8.63;2.03;;;;;;;-145.18;100.00;60484.78;5047487;28;20447;-71
2023/03/14 06:11:41;;;;;;;4.63;1.70;;;;;;;-145.18;100.00;60484.78;5046328;28;20032;-71
2023/03/14 06:14:07;;;;;;;7.43;2.10;;;;;;;-145.18;100.00;60484.78;5049220;28;20021;-71
2023/03/14 06:16:32;;;;;;;10.93;3.10;;;;;;;-145.18;100.00;60484.78;5048449;28;20112;-72
2023/03/14 06:18:57;;;;;;;7.93;1.93;;;;;;;-145.18;100.00;60484.78;5047172;28;20507;-71
2023/03/14 06:21:23;;;;;;;6.23;2.10;;;;;;;-145.18;100.00;60484.78;5048211;28;20025;-71
2023/03/14 06:23:48;;;;;;;7.50;2.10;;;;;;;-145.18;100.00;60484.78;5046156;28;20013;-70
2023/03/14 06:26:14;;;;;;;7.80;2.33;;;;;;;-145.18;100.00;60484.78;5048704;28;20029;-71
2023/03/14 06:28:39;;;;;;;9.03;2.77;;;;;;;-145.18;100.00;60484.78;5048171;28;20486;-70
2023/03/14 06:31:05;;;;;;;7.43;2.03;;;;;;;-145.18;100.00;60484.78;5047903;28;20040;-71
2023/03/14 06:33:31;;;;;;;8.90;2.40;;;;;;;-145.18;100.00;60484.78;5048907;28;20114;-71
2023/03/14 06:35:56;;;;;;;8.50;2.20;;;;;;;-145.18;100.00;60484.78;5047459;28;20477;-71
2023/03/14 06:38:22;;;;;;;8.50;1.83;;;;;;;-145.18;100.00;60484.78;5041256;28;20123;-71
2023/03/14 06:40:47;;;;;;;14.07;2.37;;;;;;;-145.18;100.00;60484.78;5048953;28;20109;-71
2023/03/14 06:43:13;;;;;;;6.00;1.50;;;;;;;-145.18;100.00;60484.78;5046277;28;20048;-70
2023/03/14 06:45:38;;;;;;;13.27;2.40;;;;;;;-145.18;100.00;60484.78;5051035;28;20121;-71
2023/03/14 06:48:03;;;;;;;7.50;1.80;;;;;;;-145.18;100.00;60484.78;5048798;28;20025;-71
2023/03/14 06:50:29;;;;;;;9.60;2.70;;;;;;;-145.18;100.00;60484.78;5049959;28;20029;-71
2023/03/14 06:52:54;;;;;;;8.97;2.00;;;;;;;-145.18;100.00;60484.78;5050038;28;20025;-71
2023/03/14 06:55:20;;;;;;;9.57;2.23;;;;;;;-145.18;100.00;60484.78;5050199;28;20060;-71
2023/03/14 06:57:46;;;;;;;10.73;2.30;;;;;;;-145.18;100.00;60484.78;5050783;28;20096;-71
2023/03/14 07:00:12;;;;;;;7.63;2.33;;;;;;;-145.18;100.00;60484.78;5049323;28;20373;-71
2023/03/14 07:02:38;;;;;;;8.77;2.23;;;;;;;-145.18;100.00;60484.78;5053463;28;20488;-71
2023/03/14 07:05:04;;;;;;;11.23;2.67;;;;;;;-145.18;100.00;60484.78;5054293;28;20021;-71
2023/03/14 07:07:30;;;;;;;9.50;2.50;;;;;;;-145.18;100.00;60484.78;5053538;28;20021;-71
2023/03/14 07:09:55;;;;;;;9.70;2.50;;;;;;;-145.18;100.00;60484.78;5053538;28;20044;-71
2023/03/14 07:12:21;;;;;;;10.33;2.17;;;;;;;-145.18;100.00;60484.78;5051319;28;20020;-71
2023/03/14 07:14:46;;;;;;;8.80;2.50;;;;;;;-145.18;100.00;60484.78;5053446;28;20477;-71
2023/03/14 07:17:12;;;;;;;7.47;2.03;;;;;;;-145.18;100.00;60484.78;5054528;28;20033;-71
2023/03/14 07:19:38;;;;;;;11.73;2.50;;;;;;;-145.18;100.00;60484.78;5053647;28;20477;-71
2023/03/14 07:22:06;;;;;;;8.13;2.60;;;;;;;-145.18;100.00;60484.78;5053533;28;20060;-71
2023/03/14 07:24:32;;;;;;;10.13;2.20;;;;;;;-145.18;100.00;60484.78;5054011;28;20065;-71
2023/03/14 07:26:57;;;;;;;9.70;2.57;;;;;;;-145.18;100.00;60484.78;5053588;28;20477;-71
2023/03/14 07:29:23;;;;;;;6.90;1.70;;;;;;;-145.18;100.00;60484.78;5052794;28;20059;-70
2023/03/14 07:31:48;;;;;;;14.57;2.50;;;;;;;-145.18;100.00;60484.78;5053583;28;20390;-71
2023/03/14 07:34:13;;;;;;;8.77;2.07;;;;;;;-145.18;100.00;60484.78;5052061;28;20021;-71
2023/03/14 07:36:39;;;;;;;7.97;2.30;;;;;;;-145.18;100.00;60484.78;5052836;28;20036;-71
2023/03/14 07:39:05;;;;;;;10.23;2.47;;;;;;;-145.18;100.00;60484.78;5053303;28;20500;-71
2023/03/14 07:41:31;;;;;;;11.73;2.13;;;;;;;-145.18;100.00;60484.78;5054189;28;20057;-70
2023/03/14 07:43:56;;;;;;;6.23;2.30;;;;;;;-145.18;100.00;60484.78;5053775;28;20032;-71
2023/03/14 07:46:22;;;;;;;8.47;2.30;;;;;;;-145.18;100.00;60484.78;5054070;28;20040;-71
2023/03/14 07:48:47;;;;;;;10.00;2.60;;;;;;;-145.18;100.00;60484.78;5053966;28;20150;-71
2023/03/14 07:51:13;;;;;;;6.10;1.70;;;;;;;-145.18;100.00;60484.78;5054726;28;20043;-71
2023/03/14 07:53:39;;;;;;;8.80;2.33;;;;;;;-145.18;100.00;60484.78;5053628;28;20035;-71
2023/03/14 07:56:05;;;;;;;5.87;1.87;;;;;;;-145.18;100.00;60484.78;5052918;28;20040;-71
2023/03/14 07:58:30;;;;;;;6.60;2.17;;;;;;;-145.18;100.00;60484.78;5052897;28;20025;-72
2023/03/14 08:00:58;;;;;;;6.33;2.07;;;;;;;-145.18;100.00;60484.78;5050474;28;20457;-71
2023/03/14 08:03:23;;;;;;;7.00;2.03;;;;;;;-145.18;100.00;60484.78;5052972;28;20416;-71
2023/03/14 08:05:50;;;;;;;4.37;1.70;;;;;;;-145.18;100.00;60484.78;5052153;28;20025;-71
2023/03/14 08:08:15;;;;;;;7.00;1.63;;;;;;;-145.18;100.00;60484.78;5052811;28;20515;-71
2023/03/14 08:10:41;;;;;;;9.73;1.80;;;;;;;-145.18;100.00;60484.78;5051760;28;20112;-72
2023/03/14 08:13:06;;;;;;;7.00;1.70;;;;;;;-145.18;100.00;60484.78;5052553;28;20060;-71
2023/03/14 08:15:32;;;;;;;8.00;1.50;;;;;;;-145.18;100.00;60484.78;5052423;28;20388;-71
2023/03/14 08:17:57;;;;;;;3.93;1.10;;;;;;;-145.18;100.00;60484.78;5052427;28;20020;-71
2023/03/14 08:20:26;;;;;;;4.43;1.17;;;;;;;-145.18;100.00;60484.78;5053246;28;20111;-71
2023/03/14 08:22:52;;;;;;;3.93;0.80;;;;;;;-145.18;100.00;60484.78;5051723;28;20087;-70
2023/03/14 08:25:17;;;;;;;5.37;1.10;;;;;;;-145.18;100.00;60484.78;5052028;28;20032;-71
2023/03/14 08:27:43;;;;;;;4.20;1.07;;;;;;;-145.18;100.00;60484.78;5051763;28;20060;-71
2023/03/14 08:30:14;;;;;;;4.60;1.20;;;;;;;-145.18;100.00;60484.78;5053338;28;20048;-70
2023/03/14 08:32:40;;;;;;;3.08;1.10;;;;;;;-145.18;100.00;60484.78;5052402;28;20029;-70
2023/03/14 08:35:06;;;;;;;1.00;0.50;;;;;;;-145.18;100.00;60484.78;5048518;28;20048;-70
2023/03/14 08:37:33;;;;;;;7.77;1.40;;;;;;;-145.18;100.00;60484.78;5050743;28;20027;-71
2023/03/14 08:39:58;;;;;;;3.93;1.20;;;;;;;-145.18;100.00;60484.78;5051334;28;20021;-70
2023/03/14 08:42:24;;;;;;;8.37;1.20;;;;;;;-145.18;100.00;60484.78;5050993;28;20132;-71
2023/03/14 08:44:51;;;;;;;8.10;1.10;;;;;;;-145.18;100.00;60484.78;5052312;28;20029;-70
2023/03/14 08:47:16;;;;;;;3.83;0.90;;;;;;;-145.18;100.00;60484.78;5052446;28;20025;-71
2023/03/14 08:49:42;;;;;;;3.03;1.10;;;;;;;-145.18;100.00;60484.78;5052068;28;20048;-70
2023/03/14 08:52:07;;;;;;;3.63;1.00;;;;;;;-145.18;100.00;60484.78;5052890;28;20033;-71
2023/03/14 08:54:33;;;;;;;2.40;1.17;;;;;;;-145.18;100.00;60484.78;5051995;28;20064;-71
2023/03/14 08:56:58;;;;;;;7.00;1.40;;;;;;;-145.18;100.00;60484.78;5039655;28;20481;-71
2023/03/14 08:59:24;;;;;;;3.70;1.00;;;;;;;-145.18;100.00;60484.78;5048095;28;20033;-71
2023/03/14 09:01:49;;;;;;;2.93;1.00;;;;;;;-145.18;100.00;60484.78;5050320;28;20104;-71
2023/03/14 09:04:15;;;;;;;4.00;1.30;;;;;;;-145.18;100.00;60484.78;5051911;28;20465;-71
2023/03/14 09:06:40;;;;;;;2.67;1.00;;;;;;;-145.18;100.00;60484.78;5043897;28;20028;-70
2023/03/14 09:09:06;;;;;;;4.83;1.30;;;;;;;-145.18;100.00;60484.78;5051829;28;20485;-70
2023/03/14 09:11:31;;;;;;;5.43;1.63;;;;;;;-145.18;100.00;60484.78;5049103;28;20028;-70
2023/03/14 09:13:56;;;;;;;4.37;1.40;;;;;;;-145.18;100.00;60484.78;5051131;28;20044;-71
2023/03/14 09:16:22;;;;;;;4.83;1.43;;;;;;;-145.18;100.00;60484.78;5051372;28;20337;-71
2023/03/14 09:18:48;;;;;;;4.20;1.50;;;;;;;-145.18;100.00;60484.78;5050514;28;20477;-70
2023/03/14 09:21:14;;;;;;;6.17;1.67;;;;;;;-145.18;100.00;60484.78;5050384;28;20091;-71
2023/03/14 09:23:40;;;;;;;4.83;1.60;;;;;;;-145.18;100.00;60484.78;5051327;28;20107;-71
2023/03/14 09:26:05;;;;;;;8.30;0.90;;;;;;;-145.18;100.00;60484.78;5050430;28;20064;-71
2023/03/14 09:28:31;;;;;;;5.43;1.00;;;;;;;-145.18;100.00;60484.78;5051310;28;20033;-71
2023/03/14 09:30:56;;;;;;;3.63;0.87;;;;;;;-145.18;100.00;60484.78;5052060;28;20025;-71
2023/03/14 09:33:22;;;;;;;3.07;0.73;;;;;;;-145.18;100.00;60484.78;5050757;28;20154;-71
2023/03/14 09:35:48;;;;;;;5.47;1.00;;;;;;;-145.18;100.00;60484.78;5050170;28;20033;-72
2023/03/14 09:38:13;;;;;;;4.90;1.00;;;;;;;-145.18;100.00;60484.78;5050840;28;20025;-72
2023/03/14 09:40:38;;;;;;;5.93;0.97;;;;;;;-145.18;100.00;60484.78;5051667;28;20420;-71
2023/03/14 09:43:04;;;;;;;4.33;0.90;;;;;;;-145.18;100.00;60484.78;5050489;28;20488;-71
2023/03/14 09:45:40;;;;;;;8.50;0.90;;;;;;;-145.18;100.00;60484.78;5051657;28;20033;-71
2023/03/14 09:48:11;;;;;;;4.00;0.90;;;;;;;-145.18;100.00;60484.78;5051612;28;20064;-71
2023/03/14 09:50:40;;;;;;;;;;;;;;;-145.18;100.00;60484.78;5052051;28;20021;-71
2023/03/14 09:53:12;;;;;;;3.97;0.80;;;;;;;-145.18;100.00;60484.78;5051890;28;20125;-71
2023/03/14 09:55:38;;;;;;;3.27;0.90;;;;;;;-145.18;100.00;60484.78;5050716;28;20071;-71
2023/03/14 09:58:11;;;;;;;3.77;0.90;;;;;;;-145.18;100.00;60484.78;5050809;28;20021;-71
2023/03/14 10:00:37;;;;;;;5.70;1.00;;;;;;;-145.18;100.00;60484.78;5051902;28;20061;-71
2023/03/14 10:03:11;;;;;;;2.90;1.60;;;;;;;-145.18;100.00;60484.78;5051238;28;20417;-71
2023/03/14 10:05:37;;;;;;;1.23;0.80;;;;;;;-145.18;100.00;60484.78;5049556;28;20025;-71
2023/03/14 10:08:02;;;;;;;1.77;1.00;;;;;;;-145.18;100.00;60484.78;5049759;28;20032;-71
2023/03/14 10:10:28;;;;;;;3.47;0.80;;;;;;;-145.18;100.00;60484.78;5049131;28;20230;-71
2023/03/14 10:13:08;;;;;;;1.83;0.80;;;;;;;-145.18;100.00;60484.78;5049791;28;20455;-71
2023/03/14 10:15:34;;;;;;;1.40;0.80;;;;;;;-145.18;100.00;60484.78;5050663;28;20040;-71
2023/03/14 10:18:02;;;;;;;2.73;0.80;;;;;;;-145.18;100.00;60484.78;5050813;28;20366;-71
2023/03/14 10:20:32;;;;;;;1.97;1.07;;;;;;;-145.18;100.00;60484.78;5050446;28;20029;-71
2023/03/14 10:22:57;;;;;;;4.13;1.40;;;;;;;-145.18;100.00;60484.78;5049202;28;20337;-71
2023/03/14 10:25:34;;;;;;;2.57;1.40;;;;;;;-145.18;100.00;60484.78;5051216;28;20467;-71
2023/03/14 10:27:59;;;;;;;2.37;1.40;;;;;;;-145.18;100.00;60484.78;5046723;28;20055;-71
2023/03/14 10:30:34;;;;;;;4.53;2.10;;;;;;;-145.18;100.00;60484.78;5049025;28;20056;-71
2023/03/14 10:33:09;;;;;;;2.20;1.17;;;;;;;-145.18;100.00;60484.78;5048502;28;20099;-71
2023/03/14 10:35:35;;;;;;;2.13;1.00;;;;;;;-145.18;100.00;60484.78;5055176;28;20041;-72
2023/03/14 10:38:03;;;;;;;2.47;1.10;;;;;;;-145.18;100.00;60484.78;5055121;28;20380;-71
2023/03/14 10:40:37;;;;;;;3.23;1.53;;;;;;;-145.18;100.00;60484.78;5054872;28;20040;-72
2023/03/14 10:43:06;;;;;;;4.20;1.97;;;;;;;-145.18;100.00;60484.78;5055255;28;20040;-72
2023/03/14 10:45:38;;;;;;;2.67;1.50;;;;;;;-145.18;100.00;60484.78;5052995;28;20056;-71
2023/03/14 10:48:20;;;;;;;4.90;1.87;;;;;;;-145.18;100.00;60484.78;5054902;28;20033;-71
2023/03/14 10:50:49;;;;;;;4.03;1.50;;;;;;;-145.18;100.00;60484.78;5051275;28;20063;-71
2023/03/14 10:53:17;;;;;;;3.23;1.60;;;;;;;-145.18;100.00;60484.78;5052744;28;20097;-72
2023/03/14 10:55:45;;;;;;;5.00;1.30;;;;;;;-145.18;100.00;60484.78;5054489;28;20393;-72
2023/03/14 10:58:24;;;;;;;4.63;1.47;;;;;;;-145.18;100.00;60484.78;5053260;28;20519;-71
2023/03/14 11:01:13;;;;;;;2.70;1.00;;;;;;;-145.18;100.00;60484.78;5049729;28;20059;-71
2023/03/14 11:03:42;;;;;;;4.20;1.30;;;;;;;-145.18;100.00;60484.78;5027945;28;20395;-71
2023/03/14 11:06:52;;;;;;;3.17;1.10;;;;;;;-145.18;100.00;60484.78;5054541;28;20029;-71